createdAt,value
2018-08-13T00:01:33.810Z,88.10
2018-08-13T00:04:03.336Z,88.10
2018-08-13T00:06:32.477Z,88.20
2018-08-13T00:09:01.805Z,88.30
2018-08-13T00:11:30.891Z,88.30
2018-08-13T00:13:59.890Z,88.60
2018-08-13T00:16:28.997Z,88.00
2018-08-13T00:18:58.095Z,88.10
2018-08-13T00:21:27.384Z,88.30
2018-08-13T00:23:56.726Z,88.30
2018-08-13T00:26:25.818Z,89.20
2018-08-13T00:28:54.822Z,88.50
2018-08-13T00:31:24.013Z,88.90
2018-08-13T00:33:53.160Z,89.10
2018-08-13T00:36:22.122Z,89.00
2018-08-13T00:38:51.326Z,88.90
2018-08-13T00:41:20.430Z,89.00
2018-08-13T00:43:49.655Z,89.00
2018-08-13T00:46:18.777Z,89.10
2018-08-13T00:48:47.959Z,89.30
2018-08-13T00:51:16.977Z,89.50
2018-08-13T00:53:46.002Z,89.80
2018-08-13T00:56:15.549Z,89.70
2018-08-13T00:58:45.021Z,90.00
2018-08-13T01:01:14.413Z,90.00
2018-08-13T01:03:43.482Z,90.00
2018-08-13T01:06:12.378Z,90.10
2018-08-13T01:08:41.513Z,90.30
2018-08-13T01:11:10.625Z,90.50
2018-08-13T01:13:39.761Z,90.30
2018-08-13T01:16:08.837Z,90.50
2018-08-13T01:18:37.998Z,90.60
2018-08-13T01:21:07.071Z,90.60
2018-08-13T01:23:36.294Z,90.70
2018-08-13T01:26:05.300Z,90.60
2018-08-13T01:28:34.740Z,90.60
2018-08-13T01:31:04.446Z,90.60
2018-08-13T01:33:33.729Z,90.60
2018-08-13T01:36:02.753Z,90.40
2018-08-13T01:38:31.757Z,90.40
2018-08-13T01:41:00.957Z,90.40
2018-08-13T01:43:30.268Z,90.40
2018-08-13T01:45:59.548Z,90.30
2018-08-13T01:48:28.738Z,90.30
2018-08-13T01:50:57.737Z,90.40
2018-08-13T01:53:26.821Z,90.30
2018-08-13T01:55:56.009Z,90.30
2018-08-13T01:58:25.223Z,90.20
2018-08-13T02:00:54.273Z,90.30
2018-08-13T02:03:23.597Z,90.20
2018-08-13T02:05:52.527Z,90.40
2018-08-13T02:08:22.239Z,90.40
2018-08-13T02:10:51.214Z,90.50
2018-08-13T02:13:20.213Z,90.50
2018-08-13T02:15:49.128Z,90.50
2018-08-13T02:18:18.111Z,90.40
2018-08-13T02:20:47.199Z,90.40
2018-08-13T02:23:16.585Z,90.40
2018-08-13T02:25:45.534Z,90.40
2018-08-13T02:28:14.542Z,90.40
2018-08-13T02:30:43.797Z,90.50
2018-08-13T02:33:12.810Z,90.50
2018-08-13T02:35:41.628Z,90.40
2018-08-13T02:38:10.878Z,90.30
2018-08-13T02:40:40.062Z,90.40
2018-08-13T02:43:08.919Z,90.40
2018-08-13T02:45:38.084Z,90.40
2018-08-13T02:48:07.832Z,90.30
2018-08-13T02:50:37.259Z,90.30
2018-08-13T02:53:06.931Z,90.70
2018-08-13T02:55:36.181Z,90.30
2018-08-13T02:58:05.465Z,90.30
2018-08-13T03:00:34.861Z,90.30
2018-08-13T03:03:03.987Z,90.20
2018-08-13T03:05:32.949Z,90.30
2018-08-13T03:08:02.012Z,90.20
2018-08-13T03:10:31.374Z,90.20
2018-08-13T03:13:00.237Z,90.20
2018-08-13T03:15:29.422Z,90.10
2018-08-13T03:17:58.969Z,90.20
2018-08-13T03:20:28.221Z,90.30
2018-08-13T03:22:57.326Z,90.20
2018-08-13T03:25:26.600Z,90.10
2018-08-13T03:27:55.441Z,90.30
2018-08-13T03:30:24.912Z,90.10
2018-08-13T03:32:53.885Z,90.10
2018-08-13T03:35:23.169Z,90.30
2018-08-13T03:37:52.160Z,90.20
2018-08-13T03:40:21.167Z,90.20
2018-08-13T03:42:50.029Z,90.10
2018-08-13T03:45:19.520Z,90.30
2018-08-13T03:47:48.730Z,90.30
2018-08-13T03:50:18.050Z,90.20
2018-08-13T03:52:47.005Z,90.20
2018-08-13T03:55:15.893Z,90.10
2018-08-13T03:57:45.031Z,90.10
2018-08-13T04:00:15.490Z,90.10
2018-08-13T04:02:44.883Z,90.10
2018-08-13T04:05:14.571Z,90.00
2018-08-13T04:07:44.181Z,90.10
2018-08-13T04:10:13.765Z,90.10
2018-08-13T04:12:43.919Z,90.10
2018-08-13T04:15:14.340Z,90.10
2018-08-13T04:17:44.325Z,90.10
2018-08-13T04:20:14.281Z,90.00
2018-08-13T04:22:43.593Z,90.00
2018-08-13T04:25:12.926Z,90.00
2018-08-13T04:27:42.613Z,90.10
2018-08-13T04:30:14.149Z,90.20
2018-08-13T04:32:44.135Z,90.30
2018-08-13T04:35:13.321Z,90.40
2018-08-13T04:37:43.291Z,90.50
2018-08-13T04:40:15.162Z,90.50
2018-08-13T04:42:45.118Z,90.40
2018-08-13T04:45:14.414Z,90.60
2018-08-13T04:47:48.986Z,90.60
2018-08-13T04:50:18.228Z,90.70
2018-08-13T04:52:47.517Z,90.60
2018-08-13T04:55:16.758Z,90.70
2018-08-13T04:57:46.008Z,90.50
2018-08-13T05:00:15.038Z,90.40
2018-08-13T05:02:44.063Z,90.40
2018-08-13T05:05:13.136Z,91.00
2018-08-13T05:07:42.553Z,90.80
2018-08-13T05:10:12.269Z,91.00
2018-08-13T05:12:41.793Z,90.60
2018-08-13T05:15:11.365Z,90.90
2018-08-13T05:17:40.588Z,90.20
2018-08-13T05:20:10.277Z,90.00
2018-08-13T05:22:39.375Z,90.50
2018-08-13T05:25:09.734Z,89.40
2018-08-13T05:27:39.144Z,89.80
2018-08-13T05:30:09.528Z,90.90
2018-08-13T05:32:38.535Z,90.80
2018-08-13T05:35:08.305Z,90.40
2018-08-13T05:37:37.745Z,89.60
2018-08-13T05:40:07.982Z,88.80
2018-08-13T05:42:37.478Z,89.60
2018-08-13T05:45:07.590Z,89.10
2018-08-13T05:47:36.614Z,87.60
2018-08-13T05:50:07.196Z,87.30
2018-08-13T05:52:36.177Z,88.70
2018-08-13T05:55:05.857Z,87.90
2018-08-13T05:57:35.010Z,87.00
2018-08-13T06:00:05.350Z,86.90
2018-08-13T06:02:34.385Z,87.00
2018-08-13T06:05:03.520Z,86.80
2018-08-13T06:07:32.666Z,87.60
2018-08-13T06:10:01.714Z,90.00
2018-08-13T06:12:30.961Z,88.30
2018-08-13T06:14:59.991Z,87.60
2018-08-13T06:17:29.601Z,86.80
2018-08-13T06:19:58.961Z,83.60
2018-08-13T06:22:28.339Z,84.60
2018-08-13T06:24:57.527Z,84.60
2018-08-13T06:27:26.831Z,83.40
2018-08-13T06:29:56.050Z,81.30
2018-08-13T06:32:25.115Z,81.20
2018-08-13T06:34:54.363Z,81.90
2018-08-13T06:37:23.710Z,84.10
2018-08-13T06:39:52.945Z,80.10
2018-08-13T06:42:21.956Z,78.20
2018-08-13T06:44:51.102Z,77.10
2018-08-13T06:47:20.359Z,78.70
2018-08-13T06:49:49.913Z,78.50
2018-08-13T06:52:19.100Z,78.70
2018-08-13T06:54:48.372Z,78.50
2018-08-13T06:57:17.503Z,76.10
2018-08-13T06:59:46.761Z,76.10
2018-08-13T07:02:16.116Z,78.10
2018-08-13T07:04:45.568Z,76.10
2018-08-13T07:07:15.109Z,75.90
2018-08-13T07:09:44.612Z,76.50
2018-08-13T07:12:13.796Z,75.60
2018-08-13T07:14:57.401Z,75.10
2018-08-13T07:17:26.711Z,76.60
2018-08-13T07:19:56.230Z,74.70
2018-08-13T07:22:25.487Z,74.70
2018-08-13T07:24:54.562Z,73.30
2018-08-13T07:27:23.878Z,72.60
2018-08-13T07:29:53.577Z,72.90
2018-08-13T07:32:23.673Z,75.70
2018-08-13T07:34:53.614Z,74.80
2018-08-13T07:37:25.380Z,75.70
2018-08-13T07:39:54.846Z,71.80
2018-08-13T07:42:24.141Z,69.30
2018-08-13T07:44:54.285Z,70.20
2018-08-13T07:47:23.718Z,69.30
2018-08-13T07:49:53.725Z,70.40
2018-08-13T07:52:23.343Z,67.50
2018-08-13T07:54:53.141Z,68.80
2018-08-13T07:57:22.935Z,70.00
2018-08-13T07:59:52.539Z,66.90
2018-08-13T08:02:23.281Z,64.80
2018-08-13T08:04:53.185Z,64.30
2018-08-13T08:07:23.334Z,62.70
2018-08-13T08:09:52.847Z,62.40
2018-08-13T08:12:22.216Z,61.10
2018-08-13T08:14:51.516Z,64.30
2018-08-13T08:17:20.522Z,60.80
2018-08-13T08:19:49.980Z,60.40
2018-08-13T08:22:19.484Z,59.20
2018-08-13T08:24:48.481Z,59.90
2018-08-13T08:27:18.067Z,56.30
2018-08-13T08:29:47.672Z,56.70
2018-08-13T08:32:17.293Z,58.30
2018-08-13T08:34:47.146Z,55.60
2018-08-13T08:37:16.671Z,55.50
2018-08-13T08:39:46.340Z,55.00
2018-08-13T08:42:15.704Z,54.20
2018-08-13T08:44:46.921Z,55.40
2018-08-13T08:47:16.567Z,53.90
2018-08-13T08:49:45.882Z,52.10
2018-08-13T08:52:15.417Z,52.00
2018-08-13T08:54:44.770Z,51.40
2018-08-13T08:57:14.501Z,52.30
2018-08-13T08:59:43.937Z,47.20
2018-08-13T09:02:13.873Z,47.60
2018-08-13T09:04:43.853Z,46.30
2018-08-13T09:07:13.213Z,48.20
2018-08-13T09:09:42.572Z,47.10
2018-08-13T09:12:13.318Z,47.10
2018-08-13T09:14:43.220Z,48.30
2018-08-13T09:17:13.494Z,47.60
2018-08-13T09:19:53.883Z,47.10
2018-08-13T09:22:34.249Z,48.80
2018-08-13T09:25:14.977Z,47.10
2018-08-13T09:27:55.065Z,46.20
2018-08-13T09:30:35.169Z,46.30
2018-08-13T09:33:15.183Z,45.20
2018-08-13T09:35:44.793Z,45.70
2018-08-13T09:38:14.391Z,44.30
2018-08-13T09:40:43.726Z,43.90
2018-08-13T09:43:13.851Z,45.00
2018-08-13T09:45:43.180Z,44.50
2018-08-13T09:48:12.386Z,42.80
2018-08-13T09:50:43.413Z,43.40
2018-08-13T09:53:13.246Z,41.60
2018-08-13T09:55:44.265Z,42.50
2018-08-13T09:58:13.360Z,41.60
2018-08-13T10:00:47.785Z,40.70
2018-08-13T10:03:17.003Z,40.50
2018-08-13T10:05:46.325Z,39.50
2018-08-13T10:08:15.434Z,39.70
2018-08-13T10:10:44.596Z,39.00
2018-08-13T10:13:13.882Z,39.20
2018-08-13T10:15:43.146Z,39.40
2018-08-13T10:18:12.270Z,39.40
2018-08-13T10:20:41.525Z,39.90
2018-08-13T10:23:10.639Z,39.30
2018-08-13T10:25:39.824Z,38.50
2018-08-13T10:28:09.026Z,38.10
2018-08-13T10:30:38.069Z,38.50
2018-08-13T10:33:07.628Z,38.90
2018-08-13T10:35:36.518Z,37.50
2018-08-13T10:38:06.595Z,38.20
2018-08-13T10:40:36.429Z,36.10
2018-08-13T10:43:05.513Z,35.20
2018-08-13T10:45:35.063Z,36.00
2018-08-13T10:48:04.093Z,34.60
2018-08-13T10:50:33.450Z,35.20
2018-08-13T10:53:02.569Z,37.00
2018-08-13T10:55:31.676Z,36.80
2018-08-13T10:58:00.625Z,36.20
2018-08-13T11:00:29.637Z,34.70
2018-08-13T11:02:58.740Z,34.60
2018-08-13T11:05:28.285Z,34.80
2018-08-13T11:07:57.240Z,33.00
2018-08-13T11:10:26.305Z,33.20
2018-08-13T11:12:55.522Z,34.70
2018-08-13T11:15:24.719Z,34.40
2018-08-13T11:17:53.891Z,35.30
2018-08-13T11:20:23.084Z,33.20
2018-08-13T11:22:52.301Z,33.20
2018-08-13T11:25:21.499Z,32.30
2018-08-13T11:27:51.005Z,30.60
2018-08-13T11:30:19.913Z,31.00
2018-08-13T11:32:49.357Z,30.40
2018-08-13T11:35:18.601Z,30.30
2018-08-13T11:37:47.915Z,29.60
2018-08-13T11:40:17.941Z,30.00
2018-08-13T11:42:47.338Z,28.70
2018-08-13T11:45:16.679Z,27.60
2018-08-13T11:47:46.017Z,26.90
2018-08-13T11:50:20.613Z,26.70
2018-08-13T11:52:50.833Z,26.90
2018-08-13T11:55:21.043Z,28.60
2018-08-13T11:57:51.057Z,28.90
2018-08-13T12:00:20.736Z,30.40
2018-08-13T12:02:50.420Z,29.70
2018-08-13T12:05:19.533Z,30.90
2018-08-13T12:07:48.975Z,31.20
2018-08-13T12:10:18.468Z,31.40
2018-08-13T12:12:47.745Z,32.30
2018-08-13T12:15:16.981Z,34.00
2018-08-13T12:17:46.347Z,33.40
2018-08-13T12:20:17.338Z,34.10
2018-08-13T12:22:46.806Z,34.60
2018-08-13T12:25:24.398Z,35.10
2018-08-13T12:27:53.907Z,36.70
2018-08-13T12:30:22.965Z,36.70
2018-08-13T12:32:53.190Z,37.30
2018-08-13T12:35:22.442Z,37.80
2018-08-13T12:37:51.829Z,36.40
2018-08-13T12:40:21.997Z,36.80
2018-08-13T12:42:50.909Z,35.80
2018-08-13T12:45:20.069Z,37.30
2018-08-13T12:47:49.361Z,34.90
2018-08-13T12:50:20.177Z,36.30
2018-08-13T12:52:50.398Z,34.90
2018-08-13T12:55:19.913Z,36.50
2018-08-13T12:57:48.973Z,37.30
2018-08-13T13:00:18.924Z,39.00
2018-08-13T13:02:49.074Z,38.30
2018-08-13T13:05:18.676Z,37.50
2018-08-13T13:07:47.678Z,36.80
2018-08-13T13:10:17.873Z,37.40
2018-08-13T13:12:47.013Z,37.50
2018-08-13T13:15:17.913Z,37.00
2018-08-13T13:17:47.121Z,36.90
2018-08-13T13:20:20.169Z,38.80
2018-08-13T13:22:51.178Z,39.20
2018-08-13T13:25:20.874Z,37.70
2018-08-13T13:27:50.135Z,37.90
2018-08-13T13:30:19.439Z,39.50
2018-08-13T13:32:48.950Z,38.10
2018-08-13T13:35:18.349Z,40.10
2018-08-13T13:37:47.493Z,38.10
2018-08-13T13:40:17.308Z,39.60
2018-08-13T13:42:46.432Z,39.70
2018-08-13T13:45:16.228Z,39.60
2018-08-13T13:47:45.590Z,40.20
2018-08-13T13:50:15.825Z,39.90
2018-08-13T13:52:45.534Z,39.20
2018-08-13T13:55:14.993Z,38.90
2018-08-13T13:57:44.223Z,38.40
2018-08-13T14:00:17.041Z,40.10
2018-08-13T14:02:47.436Z,40.70
2018-08-13T14:05:16.583Z,38.50
2018-08-13T14:07:45.762Z,38.20
2018-08-13T14:10:18.412Z,38.70
2018-08-13T14:12:47.633Z,38.90
2018-08-13T14:15:19.438Z,39.80
2018-08-13T14:17:49.025Z,38.40
2018-08-13T14:20:18.161Z,37.80
2018-08-13T14:22:47.409Z,38.20
2018-08-13T14:25:16.678Z,38.50
2018-08-13T14:27:45.869Z,37.80
2018-08-13T14:30:23.093Z,39.80
2018-08-13T14:32:52.435Z,37.70
2018-08-13T14:35:22.564Z,39.90
2018-08-13T14:37:52.233Z,39.20
2018-08-13T14:40:21.843Z,39.50
2018-08-13T14:42:51.150Z,40.50
2018-08-13T14:45:20.375Z,39.90
2018-08-13T14:47:50.708Z,38.30
2018-08-13T14:50:19.824Z,39.90
2018-08-13T14:52:49.609Z,40.90
2018-08-13T14:55:20.425Z,41.30
2018-08-13T14:57:49.565Z,40.90
2018-08-13T15:00:23.955Z,39.60
2018-08-13T15:02:54.154Z,39.40
2018-08-13T15:05:24.022Z,38.80
2018-08-13T15:07:53.421Z,40.00
2018-08-13T15:10:23.502Z,39.50
2018-08-13T15:12:52.732Z,39.10
2018-08-13T15:15:22.194Z,39.20
2018-08-13T15:17:51.769Z,39.90
2018-08-13T15:20:24.138Z,40.70
2018-08-13T15:22:53.289Z,41.30
2018-08-13T15:25:22.566Z,39.80
2018-08-13T15:27:51.655Z,39.30
2018-08-13T15:30:21.726Z,41.40
2018-08-13T15:32:51.573Z,40.30
2018-08-13T15:35:20.718Z,40.10
2018-08-13T15:37:50.426Z,41.40
2018-08-13T15:40:19.861Z,40.80
2018-08-13T15:42:49.109Z,40.90
2018-08-13T15:45:19.757Z,41.40
2018-08-13T15:47:49.169Z,41.80
2018-08-13T15:50:20.423Z,40.50
2018-08-13T15:52:49.781Z,40.20
2018-08-13T15:55:19.201Z,40.20
2018-08-13T15:57:48.565Z,39.10
2018-08-13T16:00:21.198Z,39.70
2018-08-13T16:02:50.512Z,41.30
2018-08-13T16:05:19.846Z,39.70
2018-08-13T16:07:49.701Z,39.70
2018-08-13T16:10:19.309Z,39.60
2018-08-13T16:12:48.520Z,39.50
2018-08-13T16:15:17.546Z,41.50
2018-08-13T16:17:46.832Z,43.20
2018-08-13T16:20:17.840Z,41.40
2018-08-13T16:22:47.416Z,41.20
2018-08-13T16:25:16.986Z,41.70
2018-08-13T16:27:46.920Z,42.90
2018-08-13T16:30:25.014Z,43.60
2018-08-13T16:32:54.147Z,42.60
2018-08-13T16:35:24.086Z,46.60
2018-08-13T16:37:53.468Z,44.70
2018-08-13T16:40:22.990Z,47.10
2018-08-13T16:42:52.626Z,46.00
2018-08-13T16:45:22.639Z,47.60
2018-08-13T16:47:51.958Z,46.00
2018-08-13T16:50:24.290Z,47.30
2018-08-13T16:52:53.644Z,47.10
2018-08-13T16:55:23.076Z,48.40
2018-08-13T16:57:52.116Z,47.40
2018-08-13T17:00:22.850Z,46.80
2018-08-13T17:02:52.461Z,47.20
2018-08-13T17:05:21.778Z,49.10
2018-08-13T17:07:52.102Z,49.50
2018-08-13T17:10:22.852Z,49.50
2018-08-13T17:12:52.590Z,50.80
2018-08-13T17:15:22.071Z,52.30
2018-08-13T17:17:53.420Z,51.80
2018-08-13T17:20:24.894Z,51.20
2018-08-13T17:22:56.219Z,52.90
2018-08-13T17:25:25.230Z,52.10
2018-08-13T17:27:56.025Z,52.90
2018-08-13T17:30:26.250Z,50.90
2018-08-13T17:32:56.898Z,52.30
2018-08-13T17:35:30.256Z,51.10
2018-08-13T17:38:00.505Z,51.40
2018-08-13T17:40:30.244Z,51.80
2018-08-13T17:43:00.515Z,52.40
2018-08-13T17:45:29.696Z,52.10
2018-08-13T17:47:59.426Z,53.00
2018-08-13T17:50:28.495Z,52.90
2018-08-13T17:52:57.619Z,53.30
2018-08-13T17:55:27.337Z,53.50
2018-08-13T17:57:59.002Z,54.40
2018-08-13T18:00:28.705Z,54.90
2018-08-13T18:02:57.796Z,53.70
2018-08-13T18:05:27.580Z,54.80
2018-08-13T18:07:57.161Z,55.50
2018-08-13T18:10:29.454Z,55.60
2018-08-13T18:12:59.761Z,55.20
2018-08-13T18:15:28.805Z,55.10
2018-08-13T18:17:58.682Z,56.20
2018-08-13T18:20:27.882Z,55.90
2018-08-13T18:22:57.261Z,57.20
2018-08-13T18:25:26.494Z,56.60
2018-08-13T18:27:56.365Z,56.70
2018-08-13T18:30:27.041Z,57.00
2018-08-13T18:32:56.330Z,56.50
2018-08-13T18:35:25.612Z,56.30
2018-08-13T18:37:55.082Z,56.60
2018-08-13T18:40:30.189Z,56.70
2018-08-13T18:42:59.745Z,57.50
2018-08-13T18:45:29.011Z,56.50
2018-08-13T18:47:58.645Z,57.90
2018-08-13T18:50:28.002Z,58.30
2018-08-13T18:52:57.278Z,58.30
2018-08-13T18:55:27.693Z,59.40
2018-08-13T18:57:57.340Z,57.70
2018-08-13T19:00:28.661Z,57.50
2018-08-13T19:02:58.801Z,56.00
2018-08-13T19:05:28.087Z,55.50
2018-08-13T19:07:57.403Z,57.40
2018-08-13T19:10:26.893Z,57.90
2018-08-13T19:12:56.221Z,59.00
2018-08-13T19:15:26.917Z,59.50
2018-08-13T19:17:56.127Z,58.50
2018-08-13T19:20:25.365Z,58.10
2018-08-13T19:22:57.409Z,57.10
2018-08-13T19:25:28.230Z,56.90
2018-08-13T19:27:57.548Z,58.00
2018-08-13T19:30:26.866Z,57.80
2018-08-13T19:32:56.198Z,58.10
2018-08-13T19:35:25.301Z,58.90
2018-08-13T19:37:55.213Z,57.10
2018-08-13T19:40:26.370Z,57.60
2018-08-13T19:42:55.952Z,58.50
2018-08-13T19:45:25.941Z,58.50
2018-08-13T19:47:56.219Z,58.70
2018-08-13T19:50:25.974Z,58.90
2018-08-13T19:52:55.811Z,58.50
2018-08-13T19:55:24.952Z,58.50
2018-08-13T19:57:55.017Z,59.10
2018-08-13T20:00:26.887Z,58.90
2018-08-13T20:02:56.710Z,58.50
2018-08-13T20:05:27.398Z,58.50
2018-08-13T20:07:57.258Z,59.90
2018-08-13T20:10:26.735Z,59.60
2018-08-13T20:12:56.062Z,60.00
2018-08-13T20:15:26.149Z,59.90
2018-08-13T20:17:55.579Z,60.00
2018-08-13T20:20:25.085Z,59.70
2018-08-13T20:22:54.534Z,59.40
2018-08-13T20:25:23.878Z,58.10
2018-08-13T20:27:53.183Z,58.90
2018-08-13T20:30:23.494Z,59.20
2018-08-13T20:32:53.524Z,59.30
2018-08-13T20:35:22.891Z,58.40
2018-08-13T20:37:52.672Z,58.40
2018-08-13T20:40:22.193Z,58.60
2018-08-13T20:42:51.536Z,59.60
2018-08-13T20:45:22.190Z,59.90
2018-08-13T20:47:51.553Z,59.60
2018-08-13T20:50:22.866Z,59.30
2018-08-13T20:52:52.885Z,59.70
2018-08-13T20:55:24.158Z,60.50
2018-08-13T20:57:53.542Z,61.40
2018-08-13T21:00:24.379Z,60.20
2018-08-13T21:02:54.439Z,60.70
2018-08-13T21:05:23.590Z,61.10
2018-08-13T21:07:52.863Z,62.50
2018-08-13T21:10:24.809Z,62.40
2018-08-13T21:12:54.146Z,63.70
2018-08-13T21:15:24.662Z,64.30
2018-08-13T21:17:54.895Z,64.20
2018-08-13T21:20:25.476Z,63.40
2018-08-13T21:22:55.210Z,63.00
2018-08-13T21:25:24.748Z,65.00
2018-08-13T21:27:54.162Z,64.90
2018-08-13T21:30:23.751Z,65.50
2018-08-13T21:32:53.351Z,65.60
2018-08-13T21:35:24.765Z,66.20
2018-08-13T21:37:54.688Z,66.70
2018-08-13T21:40:24.301Z,67.70
2018-08-13T21:42:53.521Z,68.60
2018-08-13T21:45:23.198Z,68.60
2018-08-13T21:47:52.454Z,68.90
2018-08-13T21:50:22.833Z,68.90
2018-08-13T21:52:52.734Z,69.00
2018-08-13T21:55:22.017Z,69.00
2018-08-13T21:57:51.026Z,69.80
2018-08-13T22:00:28.894Z,70.20
2018-08-13T22:02:59.168Z,70.70
2018-08-13T22:05:28.729Z,71.30
2018-08-13T22:07:57.670Z,71.60
2018-08-13T22:10:27.329Z,71.70
2018-08-13T22:12:56.379Z,72.10
2018-08-13T22:15:26.630Z,72.80
2018-08-13T22:17:56.786Z,72.80
2018-08-13T22:20:26.593Z,72.70
2018-08-13T22:22:56.797Z,72.40
2018-08-13T22:25:30.445Z,72.80
2018-08-13T22:28:00.074Z,73.00
2018-08-13T22:30:30.382Z,72.80
2018-08-13T22:32:59.900Z,73.50
2018-08-13T22:35:28.933Z,73.80
2018-08-13T22:37:58.211Z,73.50
2018-08-13T22:40:27.414Z,73.50
2018-08-13T22:42:56.876Z,73.30
2018-08-13T22:45:26.242Z,73.80
2018-08-13T22:47:55.317Z,74.30
2018-08-13T22:50:25.041Z,73.70
2018-08-13T22:52:54.698Z,74.10
2018-08-13T22:55:24.361Z,74.40
2018-08-13T22:57:54.073Z,74.30
2018-08-13T23:00:23.757Z,74.70
2018-08-13T23:02:52.694Z,75.10
2018-08-13T23:05:24.742Z,74.90
2018-08-13T23:07:53.871Z,75.40
2018-08-13T23:10:24.107Z,75.50
2018-08-13T23:12:54.277Z,75.50
2018-08-13T23:15:23.670Z,75.70
2018-08-13T23:17:53.417Z,76.30
2018-08-13T23:20:24.819Z,75.70
2018-08-13T23:23:00.171Z,75.60
2018-08-13T23:25:30.227Z,75.40
2018-08-13T23:28:00.517Z,75.70
2018-08-13T23:30:30.541Z,75.90
2018-08-13T23:33:00.806Z,75.90
2018-08-13T23:35:30.654Z,76.00
2018-08-13T23:37:59.969Z,76.20
2018-08-13T23:40:29.768Z,75.90
2018-08-13T23:42:58.719Z,76.50
2018-08-13T23:45:29.247Z,76.80
2018-08-13T23:47:58.230Z,76.40
2018-08-13T23:50:28.268Z,76.50
2018-08-13T23:52:58.811Z,76.60
2018-08-13T23:55:29.504Z,76.80
2018-08-13T23:57:58.860Z,76.80
